Potsdam, New York
Current Conditions -  °F | °C
As of 6:53 AM on Saturday 20 Dec 2014 (Local Time) from KMSS Reporting Station
Clear Clear  
Wind Chill:   Ceiling: Unl
Heat Index:   Visibility: 10mi
Dew Point: -2°   Wind: 0mph
Humidity: 80%   Direction: NA
Pressure: 30.31"   Gusts: NA
Location:  44.67°N, 74.98°W
Report Text: KMSS 201153Z AUTO 00000KT 10SM CLR M16/M19 A3031 RMK AO2 SLP274 I6000 T11611189 11117 21167 53007
Loading
Personal Weather Stations






























Interactive Weather Map New forecast layout! Learn more

10-Day Weather Forecast

Advertisements
Track Severe Weather on mobile